Bookmark and Share
Track history (hours):
 

Van Kinsbergen

Last reported at 2014-Apr-16 06:32 UTC. Time now 2014-Apr-23 09:17 UTC.
Position N 52°57' E 004°48'.

Length 40 m; draft 3.1 m.

MMSI: 244736000.

NotesDate/timePositionNaut miles runAvg speedWind from/ knotsBaromVisibWave heightAir tempDewpointWater temp
2014-Apr-16 06:32N 52°57' E 004°48'1 0.4
2014-Apr-16 05:09N 52°58' E 004°47'0 0.0
2014-Apr-16 04:27N 52°58' E 004°47'0 0.0
2014-Apr-16 03:27N 52°58' E 004°47'0 0.0
2014-Apr-16 02:24N 52°58' E 004°47'0 0.0
2014-Apr-16 01:30N 52°58' E 004°47'0 0.0
2014-Apr-16 00:30N 52°58' E 004°47'0 0.0
2014-Apr-15 23:12N 52°58' E 004°47'0 0.0
2014-Apr-15 22:33N 52°58' E 004°47'0 0.0
2014-Apr-15 21:33N 52°58' E 004°47'0 0.0
2014-Apr-15 20:15N 52°58' E 004°47'0 0.0
2014-Apr-15 19:33N 52°58' E 004°47'0 0.0
2014-Apr-15 18:33N 52°58' E 004°47'0 0.0
2014-Apr-15 17:24N 52°58' E 004°47'0 0.0
2014-Apr-15 15:24N 52°58' E 004°47'0 0.0
2014-Apr-15 14:27N 52°58' E 004°47'3 1.3
2014-Apr-15 12:33N 52°60' E 004°48'3 3.0
2014-Apr-15 11:32N 53°02' E 004°51'0 0.0
2014-Apr-15 08:34N 53°02' E 004°51'5 4.8
2014-Apr-15 07:34N 52°58' E 004°47'1 0.7
2014-Apr-15 06:33N 52°58' E 004°47'0 0.0
2014-Apr-15 05:30N 52°58' E 004°47'0 0.0
2014-Apr-15 02:33N 52°58' E 004°47'0 0.0
2014-Apr-14 19:30N 52°58' E 004°47'0 0.0
2014-Apr-14 17:33N 52°58' E 004°47'0 0.0
2014-Apr-14 15:30N 52°58' E 004°47'0 0.0
2014-Apr-14 13:32N 52°58' E 004°47'0 0.0
2014-Apr-14 11:32N 52°58' E 004°47'0 0.0
2014-Apr-14 06:29N 52°58' E 004°47'0 0.0
2014-Apr-13 22:08N 52°58' E 004°47'0 0.0
2014-Apr-13 21:05N 52°58' E 004°47'0 0.0
2014-Apr-13 19:11N 52°58' E 004°47'0 0.0
2014-Apr-13 18:11N 52°58' E 004°47'0 0.0
2014-Apr-13 17:23N 52°58' E 004°47'0 0.0
2014-Apr-13 16:14N 52°58' E 004°47'0 0.0
2014-Apr-13 15:32N 52°58' E 004°47'0 0.0
2014-Apr-13 12:29N 52°58' E 004°47'0 0.0
2014-Apr-13 11:32N 52°58' E 004°47'0 0.0
2014-Apr-13 10:20N 52°58' E 004°47'0 0.0
2014-Apr-13 09:23N 52°58' E 004°47'0 0.0
2014-Apr-13 08:08N 52°58' E 004°47'0 0.0
2014-Apr-13 07:23N 52°58' E 004°47'0 0.0
2014-Apr-13 06:26N 52°58' E 004°47'0 0.0
2014-Apr-13 05:26N 52°58' E 004°47'0 0.0
2014-Apr-13 04:26N 52°58' E 004°47'0 0.0
2014-Apr-13 03:26N 52°58' E 004°47'0 0.0
2014-Apr-13 02:29N 52°58' E 004°47'0 0.0
2014-Apr-13 01:29N 52°58' E 004°47'0 0.0
2014-Apr-13 00:29N 52°58' E 004°47'0 0.0
2014-Apr-12 23:29N 52°58' E 004°47'0 0.0
2014-Apr-12 22:32N 52°58' E 004°47'0 0.0
2014-Apr-12 21:29N 52°58' E 004°47'0 0.0
2014-Apr-12 20:32N 52°58' E 004°47'0 0.0
2014-Apr-12 19:20N 52°58' E 004°47'0 0.0
2014-Apr-12 18:23N 52°58' E 004°47'0 0.0
2014-Apr-12 17:23N 52°58' E 004°47'4 4.7
2014-Apr-12 16:33N 52°56' E 004°41'34 8.3
2014-Apr-12 12:23N 53°30' E 004°49'1113.3
2014-Apr-12 11:31N 53°34' E 005°07'1413.4
2014-Apr-12 10:30N 53°39' E 005°29'7211.9
2014-Apr-12 04:30N 53°59' E 007°25'1212.5
2014-Apr-12 03:33N 54°02' E 007°44'1313.1
2014-Apr-12 02:33N 54°02' E 008°07'1514.9
2014-Apr-12 01:34N 53°58' E 008°31'1414.0
2014-Apr-12 00:33N 53°50' E 008°51'1111.2
2014-Apr-11 23:33N 53°54' E 009°09'5 5.1
2014-Apr-11 22:33N 53°57' E 009°15'9 8.6
2014-Apr-11 21:34N 54°05' E 009°19'53 7.2
2014-Apr-11 14:16N 54°50' E 010°08'1012.7
2014-Apr-11 13:31N 54°59' E 010°05'98 3.9
2014-Apr-10 12:32N 56°11' E 012°04'1111.4
2014-Apr-10 11:33N 56°10' E 012°23'1211.6
2014-Apr-10 10:33N 56°03' E 012°40'1111.3
2014-Apr-10 09:33N 55°52' E 012°45'9 9.4
2014-Apr-10 08:33N 55°43' E 012°39'3 2.8
2014-Apr-10 07:32N 55°41' E 012°36'0 0.0
2014-Apr-10 06:32N 55°41' E 012°36'0 0.0
2014-Apr-10 05:32N 55°41' E 012°36'0 0.0
2014-Apr-10 04:32N 55°41' E 012°36'0 0.0
2014-Apr-10 03:32N 55°41' E 012°36'0 0.0
2014-Apr-10 02:32N 55°41' E 012°36'0 0.0
2014-Apr-10 01:32N 55°41' E 012°36'0 0.0
2014-Apr-10 00:32N 55°41' E 012°36'0 0.0
2014-Apr-09 23:29N 55°41' E 012°36'0 0.0
2014-Apr-09 22:32N 55°41' E 012°36'0 0.0
2014-Apr-09 21:32N 55°41' E 012°36'0 0.0
2014-Apr-09 20:32N 55°41' E 012°36'0 0.0
2014-Apr-09 19:32N 55°41' E 012°36'0 0.0
2014-Apr-09 18:32N 55°41' E 012°36'0 0.0
2014-Apr-09 17:32N 55°41' E 012°36'0 0.0
2014-Apr-09 16:32N 55°41' E 012°36'0 0.0
2014-Apr-09 15:32N 55°41' E 012°36'0 0.0
2014-Apr-09 14:32N 55°41' E 012°36'0 0.0
2014-Apr-09 13:32N 55°41' E 012°36'0 0.0
2014-Apr-09 12:32N 55°41' E 012°36'0 0.0
2014-Apr-09 11:32N 55°41' E 012°36'0 0.0
2014-Apr-09 10:32N 55°41' E 012°36'0 0.0
2014-Apr-09 09:32N 55°41' E 012°36'0 0.0
2014-Apr-09 08:32N 55°41' E 012°36'6 5.7
2014-Apr-09 07:33N 55°46' E 012°41'1312.7
2014-Apr-09 06:34N 55°58' E 012°37'1212.0
2014-Apr-09 05:34N 56°09' E 012°26'1212.1
2014-Apr-09 04:33N 56°11' E 012°05'110 8.1
2014-Apr-08 15:04N 54°50' E 009°54'610.7
2014-Apr-08 14:33N 54°49' E 009°44'7 6.2
2014-Apr-08 13:26N 54°52' E 009°34'2 2.0
2014-Apr-08 12:16N 54°53' E 009°38'2 2.4
2014-Apr-08 11:33N 54°53' E 009°35'2 1.6
2014-Apr-08 10:27N 54°53' E 009°38'0 0.0
2014-Apr-08 09:11N 54°53' E 009°38'2 3.2
2014-Apr-08 08:33N 54°51' E 009°38'1 0.7
2014-Apr-08 06:32N 54°52' E 009°37'8 8.1
2014-Apr-08 05:33N 54°51' E 009°51'  

Dump ship's entire track history

sailing weather and tide predictions

Van Kinsbergen — PAKB — position and weather